Time;durP1;ratioP1;P1;durP2;ratioP2;P2;SDS_P1;SDS_P2;PMS_P1;PMS_P2;Temp;Humidity;BMP_temperature;BMP_pressure;BME280_temperature;BME280_humidity;BME280_pressure;Samples;Min_cycle;Max_cycle;Signal;HPM_P1;HPM_P2
2023/07/01 00:01:01;;;;;;;3.60;1.85;;;14.30;1.00;;;;;;5049643;28;20037;-79
2023/07/01 00:03:30;;;;;;;7.35;2.30;;;14.30;1.00;;;;;;5047461;28;20041;-82
2023/07/01 00:06:01;;;;;;;4.70;2.38;;;14.30;1.00;;;;;;5045289;28;20036;-80
2023/07/01 00:08:27;;;;;;;4.38;2.50;;;14.10;1.00;;;;;;5048758;28;20043;-82
2023/07/01 00:10:59;;;;;;;4.30;2.15;;;14.10;1.00;;;;;;5046095;28;20138;-81
2023/07/01 00:13:25;;;;;;;3.65;2.30;;;14.30;1.00;;;;;;5029447;28;20037;-81
2023/07/01 00:15:51;;;;;;;5.03;2.17;;;14.40;1.00;;;;;;5045377;28;20036;-81
2023/07/01 00:18:20;;;;;;;8.25;2.63;;;14.40;1.00;;;;;;5048678;28;20025;-81
2023/07/01 00:20:46;;;;;;;4.32;2.17;;;14.30;1.00;;;;;;5047163;28;20117;-81
2023/07/01 00:23:12;;;;;;;4.75;1.75;;;14.10;1.00;;;;;;5047063;28;20435;-81
2023/07/01 00:25:39;;;;;;;3.63;2.05;;;14.00;1.00;;;;;;5046902;28;20375;-82
2023/07/01 00:28:05;;;;;;;4.25;1.92;;;13.80;1.00;;;;;;5031872;28;20029;-82
2023/07/01 00:30:31;;;;;;;5.30;2.28;;;13.80;1.00;;;;;;5051199;28;20055;-81
2023/07/01 00:33:05;;;;;;;4.15;2.40;;;13.80;1.00;;;;;;5049602;28;20052;-81
2023/07/01 00:35:32;;;;;;;7.40;2.97;;;13.80;1.00;;;;;;5048327;28;20048;-82
2023/07/01 00:37:58;;;;;;;6.90;2.58;;;13.70;1.00;;;;;;5050522;28;20460;-80
2023/07/01 00:40:25;;;;;;;3.78;2.00;;;13.60;1.00;;;;;;5050450;28;20040;-81
2023/07/01 00:42:51;;;;;;;3.25;2.28;;;13.50;1.00;;;;;;5051161;28;20036;-81
2023/07/01 00:45:18;;;;;;;4.50;2.03;;;13.40;11.80;;;;;;5065501;28;20396;-82
2023/07/01 00:47:44;;;;;;;4.35;2.35;;;13.40;13.20;;;;;;5016267;28;20044;-82
2023/07/01 00:50:14;;;;;;;5.22;2.03;;;13.40;11.00;;;;;;5034271;28;20044;-82
2023/07/01 00:52:44;;;;;;;5.78;2.58;;;13.30;18.30;;;;;;5049282;28;20056;-82
2023/07/01 00:55:12;;;;;;;4.40;2.63;;;13.20;26.30;;;;;;5045884;28;20040;-82
2023/07/01 00:57:39;;;;;;;4.93;1.90;;;13.30;34.70;;;;;;5049192;28;20392;-83
2023/07/01 01:00:10;;;;;;;3.38;2.20;;;13.40;25.20;;;;;;5032346;28;20042;-82
2023/07/01 01:03:21;;;;;;;4.30;2.10;;;13.30;20.20;;;;;;5048938;28;20037;-81
2023/07/01 01:05:58;;;;;;;4.73;1.67;;;13.50;29.50;;;;;;5045020;28;20033;-81
2023/07/01 01:08:48;;;;;;;6.80;2.60;;;13.60;21.30;;;;;;5049327;28;20025;-80
2023/07/01 01:11:16;;;;;;;4.43;3.13;;;13.60;13.50;;;;;;5048555;28;20060;-82
2023/07/01 01:13:46;;;;;;;6.80;1.98;;;13.40;21.60;;;;;;5047923;28;20033;-81
2023/07/01 01:16:14;;;;;;;7.20;2.30;;;13.40;30.00;;;;;;5047293;28;20053;-82
2023/07/01 01:18:43;;;;;;;5.65;2.80;;;13.10;31.60;;;;;;5046835;28;20033;-80
2023/07/01 01:21:13;;;;;;;5.95;2.75;;;13.10;42.60;;;;;;5046140;28;20044;-81
2023/07/01 01:23:56;;;;;;;4.65;2.35;;;13.00;56.50;;;;;;5049858;28;20041;-82
2023/07/01 01:26:23;;;;;;;5.40;2.20;;;12.90;68.50;;;;;;5046080;28;20044;-81
2023/07/01 01:28:50;;;;;;;5.70;2.88;;;12.90;79.40;;;;;;5065654;28;20487;-81
2023/07/01 01:31:19;;;;;;;7.30;2.45;;;12.90;72.70;;;;;;5049747;28;20033;-80
2023/07/01 01:33:48;;;;;;;4.03;2.83;;;13.00;81.00;;;;;;5062362;28;20041;-81
2023/07/01 01:36:42;;;;;;;4.07;2.67;;;13.10;76.30;;;;;;5031140;28;20045;-81
2023/07/01 01:39:11;;;;;;;4.40;2.67;;;13.10;60.80;;;;;;5046138;28;20045;-83
2023/07/01 01:41:46;;;;;;;3.05;2.55;;;13.10;64.80;;;;;;5051433;28;20037;-81
2023/07/01 01:44:25;;;;;;;4.28;2.58;;;12.90;64.80;;;;;;5046692;28;20037;-82
2023/07/01 01:46:55;;;;;;;3.38;2.30;;;12.80;85.80;;;;;;5048286;28;20032;-80
2023/07/01 01:49:22;;;;;;;6.32;2.83;;;12.70;91.00;;;;;;5062209;28;20055;-81
2023/07/01 01:51:48;;;;;;;6.68;3.03;;;12.60;99.90;;;;;;5047891;28;20053;-81
2023/07/01 01:54:15;;;;;;;5.57;2.53;;;12.50;99.90;;;;;;5048905;28;20037;-80
2023/07/01 01:56:42;;;;;;;4.68;2.80;;;12.50;99.90;;;;;;5046929;28;20037;-81
2023/07/01 01:59:11;;;;;;;4.30;3.03;;;12.70;99.90;;;;;;5049559;28;20498;-81
2023/07/01 02:01:40;;;;;;;4.05;2.45;;;12.80;99.90;;;;;;5047366;28;20049;-81
2023/07/01 02:04:06;;;;;;;7.35;3.38;;;12.80;99.90;;;;;;5049606;28;20033;-81
2023/07/01 02:06:35;;;;;;;4.90;2.60;;;12.90;99.90;;;;;;5046591;28;20472;-82
2023/07/01 02:09:04;;;;;;;4.65;2.70;;;13.00;99.90;;;;;;5063563;28;20033;-81
2023/07/01 02:11:30;;;;;;;6.22;2.85;;;13.10;99.90;;;;;;5049022;28;20029;-81
2023/07/01 02:13:56;;;;;;;6.95;2.88;;;13.20;99.90;;;;;;5062442;28;20041;-81
2023/07/01 02:16:23;;;;;;;3.63;2.60;;;13.20;99.90;;;;;;5045222;28;20053;-80
2023/07/01 02:18:49;;;;;;;4.13;2.83;;;13.10;99.90;;;;;;5050364;28;20471;-80
2023/07/01 02:21:15;;;;;;;5.38;3.70;;;13.00;99.90;;;;;;5063688;28;20048;-80
2023/07/01 02:23:41;;;;;;;6.40;3.15;;;13.00;99.90;;;;;;5065441;28;20045;-80
2023/07/01 02:26:08;;;;;;;8.52;3.65;;;13.00;99.90;;;;;;5048833;28;20040;-79
2023/07/01 02:28:37;;;;;;;8.23;3.33;;;13.00;99.90;;;;;;5050787;28;20033;-82
2023/07/01 02:31:04;;;;;;;7.47;3.85;;;13.10;99.90;;;;;;5063371;28;20037;-81
2023/07/01 02:33:30;;;;;;;6.10;3.47;;;13.10;99.90;;;;;;5049492;28;20038;-80
2023/07/01 02:35:56;;;;;;;7.57;3.90;;;13.10;99.90;;;;;;5046089;28;20421;-80
2023/07/01 02:38:23;;;;;;;4.97;3.80;;;13.10;99.90;;;;;;5048550;28;20045;-80
2023/07/01 02:40:49;;;;;;;5.78;4.07;;;13.10;99.90;;;;;;5045874;28;20057;-80
2023/07/01 02:43:18;;;;;;;5.35;4.07;;;13.20;99.90;;;;;;5047556;28;20128;-80
2023/07/01 02:45:44;;;;;;;6.68;3.63;;;13.30;99.90;;;;;;5060843;28;20048;-80
2023/07/01 02:48:10;;;;;;;7.43;3.83;;;13.30;99.90;;;;;;5048195;28;20033;-81
2023/07/01 02:50:36;;;;;;;9.38;4.13;;;13.40;99.90;;;;;;5064330;28;20401;-82
2023/07/01 02:53:03;;;;;;;7.63;4.30;;;13.30;99.90;;;;;;5044212;28;20393;-81
2023/07/01 02:55:29;;;;;;;5.45;3.90;;;13.30;99.90;;;;;;5030019;28;20049;-81
2023/07/01 02:57:55;;;;;;;5.18;3.90;;;13.40;99.90;;;;;;5029856;28;20025;-81
2023/07/01 03:00:21;;;;;;;8.00;4.45;;;13.40;99.90;;;;;;5048685;28;20033;-81
2023/07/01 03:02:48;;;;;;;8.20;4.50;;;13.30;99.90;;;;;;5058440;28;20044;-81
2023/07/01 03:05:14;;;;;;;8.75;4.72;;;13.40;99.90;;;;;;5045526;28;20033;-81
2023/07/01 03:07:40;;;;;;;5.43;4.18;;;13.40;99.90;;;;;;5046135;28;20473;-81
2023/07/01 03:10:07;;;;;;;8.00;4.60;;;13.40;99.90;;;;;;5062110;28;20140;-80
2023/07/01 03:12:33;;;;;;;8.30;4.90;;;13.40;99.90;;;;;;5047209;28;20037;-81
2023/07/01 03:14:59;;;;;;;10.25;4.85;;;13.40;99.90;;;;;;5030696;28;20485;-81
2023/07/01 03:17:25;;;;;;;7.78;4.70;;;13.40;99.90;;;;;;5046301;28;20059;-81
2023/07/01 03:19:51;;;;;;;6.50;4.45;;;13.40;99.90;;;;;;5044977;28;20040;-82
2023/07/01 03:22:17;;;;;;;8.77;3.92;;;13.40;99.90;;;;;;5046886;28;20128;-81
2023/07/01 03:24:43;;;;;;;9.00;4.60;;;13.40;99.90;;;;;;5043378;28;20475;-81
2023/07/01 03:27:09;;;;;;;10.07;4.50;;;13.40;99.90;;;;;;5047383;28;20467;-80
2023/07/01 03:29:36;;;;;;;7.60;4.15;;;13.60;99.90;;;;;;5031563;28;20060;-81
2023/07/01 03:32:05;;;;;;;7.60;3.75;;;13.60;99.90;;;;;;5046833;28;20035;-80
2023/07/01 03:34:31;;;;;;;7.35;4.57;;;13.60;99.90;;;;;;5048153;28;20032;-80
2023/07/01 03:36:57;;;;;;;7.80;4.38;;;13.60;99.90;;;;;;5045259;28;20025;-82
2023/07/01 03:39:23;;;;;;;5.28;3.90;;;13.60;99.90;;;;;;5047802;28;20032;-80
2023/07/01 03:41:49;;;;;;;7.18;4.38;;;13.60;99.90;;;;;;5043931;28;20364;-81
2023/07/01 03:44:15;;;;;;;9.38;4.45;;;13.60;99.90;;;;;;5049171;28;20033;-81
2023/07/01 03:46:42;;;;;;;8.65;4.68;;;13.50;99.90;;;;;;5027880;28;20029;-81
2023/07/01 03:49:08;;;;;;;7.50;4.00;;;13.60;99.90;;;;;;5031152;28;20053;-81
2023/07/01 03:51:34;;;;;;;6.40;4.65;;;13.60;99.90;;;;;;5046381;28;20036;-81
2023/07/01 03:54:00;;;;;;;5.93;4.32;;;13.70;99.90;;;;;;5046435;28;20586;-81
2023/07/01 03:56:26;;;;;;;9.57;4.88;;;13.70;99.90;;;;;;5060208;28;20408;-81
2023/07/01 03:58:53;;;;;;;10.52;5.60;;;13.80;99.90;;;;;;5045091;28;20407;-81
2023/07/01 04:01:19;;;;;;;6.60;5.43;;;13.90;99.90;;;;;;5063962;28;20071;-80
2023/07/01 04:03:45;;;;;;;8.70;5.72;;;14.00;99.90;;;;;;5045968;28;20545;-81
2023/07/01 04:06:11;;;;;;;7.72;5.05;;;14.00;99.90;;;;;;5047983;28;20037;-81
2023/07/01 04:08:38;;;;;;;6.15;5.35;;;14.10;99.90;;;;;;5038850;28;20048;-81
2023/07/01 04:11:04;;;;;;;7.82;5.93;;;14.10;99.90;;;;;;5038340;28;20060;-82
2023/07/01 04:13:31;;;;;;;8.73;5.35;;;14.20;99.90;;;;;;5043082;28;20040;-82
2023/07/01 04:15:57;;;;;;;7.25;5.15;;;14.20;99.90;;;;;;5050323;28;20060;-81
2023/07/01 04:18:23;;;;;;;8.52;5.80;;;14.30;99.90;;;;;;5048821;28;20036;-81
2023/07/01 04:20:49;;;;;;;8.90;5.45;;;14.50;99.90;;;;;;5034754;28;20041;-82
2023/07/01 04:23:15;;;;;;;8.52;4.28;;;14.70;99.90;;;;;;5048480;28;20041;-82
2023/07/01 04:25:42;;;;;;;8.82;5.60;;;15.10;99.90;;;;;;5041693;28;20026;-81
2023/07/01 04:28:08;;;;;;;6.53;4.35;;;15.50;99.90;;;;;;5047588;28;20037;-81
2023/07/01 04:30:34;;;;;;;5.72;4.28;;;15.90;99.90;;;;;;5041119;28;20033;-81
2023/07/01 04:33:00;;;;;;;4.10;3.28;;;16.40;99.90;;;;;;5046583;28;20424;-80
2023/07/01 04:35:26;;;;;;;5.22;2.97;;;16.80;69.50;;;;;;5042929;28;20480;-82
2023/07/01 04:37:53;;;;;;;5.60;2.95;;;17.20;4.30;;;;;;5044102;28;20040;-82
2023/07/01 04:40:19;;;;;;;5.22;2.92;;;17.50;1.00;;;;;;5046263;28;20034;-82
2023/07/01 04:42:50;;;;;;;3.97;2.50;;;17.90;1.00;;;;;;5030441;28;20157;-81
2023/07/01 04:45:21;;;;;;;5.28;2.90;;;18.30;1.00;;;;;;5045239;28;20045;-81
2023/07/01 04:47:48;;;;;;;5.10;3.28;;;18.70;1.00;;;;;;5041207;28;20048;-81
2023/07/01 04:50:14;;;;;;;6.03;3.03;;;18.50;1.00;;;;;;5061010;28;20422;-81
2023/07/01 04:52:42;;;;;;;8.95;3.35;;;18.20;1.00;;;;;;5043970;28;20052;-82
2023/07/01 04:55:09;;;;;;;3.42;2.30;;;17.90;1.00;;;;;;5044797;28;20045;-82
2023/07/01 04:57:35;;;;;;;4.63;2.80;;;17.70;1.00;;;;;;5045944;28;20041;-83
2023/07/01 05:00:02;;;;;;;5.38;2.50;;;17.60;1.00;;;;;;5027379;28;20602;-81
2023/07/01 05:02:28;;;;;;;4.43;2.25;;;17.60;1.00;;;;;;5045443;28;20464;-81
2023/07/01 05:04:55;;;;;;;4.05;2.25;;;17.40;1.00;;;;;;5044394;28;20033;-82
2023/07/01 05:07:21;;;;;;;3.85;2.70;;;17.50;1.00;;;;;;5062994;28;20526;-82
2023/07/01 05:09:47;;;;;;;7.10;2.17;;;17.70;1.00;;;;;;5046314;28;20045;-83
2023/07/01 05:12:13;;;;;;;3.75;2.25;;;18.10;1.00;;;;;;5050522;28;20029;-81
2023/07/01 05:14:39;;;;;;;4.53;2.55;;;18.50;1.00;;;;;;5047232;28;20502;-81
2023/07/01 05:17:05;;;;;;;4.75;2.25;;;18.70;1.00;;;;;;5048256;28;20056;-82
2023/07/01 05:19:31;;;;;;;3.20;2.25;;;18.70;1.00;;;;;;5050751;28;20052;-81
2023/07/01 05:21:57;;;;;;;5.85;2.40;;;18.80;1.00;;;;;;5049136;28;20365;-82
2023/07/01 05:24:24;;;;;;;4.63;2.15;;;19.00;1.00;;;;;;5047726;28;20483;-81
2023/07/01 05:26:51;;;;;;;4.95;2.15;;;19.20;99.90;;;;;;5054853;28;20403;-81
2023/07/01 05:29:20;;;;;;;3.60;1.60;;;19.70;99.90;;;;;;5055175;28;20033;-81
2023/07/01 05:31:48;;;;;;;3.00;1.65;;;20.30;99.90;;;;;;5050777;28;20458;-82
2023/07/01 05:34:15;;;;;;;3.25;1.70;;;20.80;99.90;;;;;;5050879;28;20059;-82
2023/07/01 05:36:41;;;;;;;2.65;1.55;;;21.20;99.90;;;;;;5049796;28;20040;-81
2023/07/01 05:39:07;;;;;;;6.90;1.35;;;20.60;99.90;;;;;;5050607;28;20040;-81
2023/07/01 05:41:34;;;;;;;3.78;1.70;;;20.70;99.90;;;;;;5050326;28;20487;-81
2023/07/01 05:44:00;;;;;;;4.70;1.65;;;20.60;99.90;;;;;;5065462;28;20404;-82
2023/07/01 05:46:26;;;;;;;4.28;1.88;;;20.50;99.90;;;;;;5047790;28;20045;-81
2023/07/01 05:48:52;;;;;;;5.35;1.85;;;20.60;99.90;;;;;;5050275;28;20493;-82
2023/07/01 05:51:19;;;;;;;4.93;1.77;;;20.70;99.90;;;;;;5050292;28;20052;-82
2023/07/01 05:53:46;;;;;;;5.03;1.85;;;21.20;99.90;;;;;;5051223;28;20060;-82
2023/07/01 05:56:12;;;;;;;4.78;2.42;;;21.10;99.90;;;;;;5049596;28;20033;-82
2023/07/01 05:58:38;;;;;;;2.38;1.35;;;21.70;99.90;;;;;;5064056;28;20053;-81
2023/07/01 06:01:05;;;;;;;6.60;1.95;;;21.50;99.90;;;;;;5062236;28;20029;-82
2023/07/01 06:03:31;;;;;;;4.22;1.50;;;21.20;99.90;;;;;;5050245;28;20047;-82
2023/07/01 06:05:57;;;;;;;3.78;1.70;;;21.00;99.90;;;;;;5046837;28;20032;-83
2023/07/01 06:08:23;;;;;;;3.42;1.30;;;20.80;99.90;;;;;;5067554;28;20068;-82
2023/07/01 06:10:49;;;;;;;6.93;1.80;;;21.00;99.90;;;;;;5048523;28;20041;-83
2023/07/01 06:13:15;;;;;;;3.40;1.50;;;21.50;99.90;;;;;;5050537;28;20028;-82
2023/07/01 06:15:41;;;;;;;5.53;2.40;;;21.60;99.90;;;;;;5052247;28;20056;-83
2023/07/01 06:18:08;;;;;;;6.15;2.00;;;21.70;99.90;;;;;;5050693;28;20041;-83
2023/07/01 06:20:34;;;;;;;5.13;1.73;;;21.70;99.90;;;;;;5039080;28;20056;-82
2023/07/01 06:23:00;;;;;;;3.63;1.90;;;21.90;99.90;;;;;;5047296;28;20496;-82
2023/07/01 06:25:26;;;;;;;3.78;1.63;;;22.10;99.90;;;;;;5048598;28;20037;-82
2023/07/01 06:27:52;;;;;;;2.47;1.60;;;22.00;99.90;;;;;;5050178;28;20029;-82
2023/07/01 06:30:18;;;;;;;3.50;2.00;;;22.20;99.90;;;;;;5057619;28;20031;-81
2023/07/01 06:32:44;;;;;;;5.70;2.30;;;22.00;99.90;;;;;;5046900;28;20029;-81
2023/07/01 06:35:10;;;;;;;3.35;1.60;;;22.00;99.90;;;;;;5013855;28;20044;-81
2023/07/01 06:37:37;;;;;;;4.57;2.10;;;22.00;99.90;;;;;;5047735;28;20464;-83
2023/07/01 06:40:03;;;;;;;5.32;2.00;;;22.40;99.90;;;;;;5049363;28;20033;-83
2023/07/01 06:42:30;;;;;;;4.55;2.05;;;22.40;99.90;;;;;;5044421;28;20046;-82
2023/07/01 06:44:56;;;;;;;3.35;1.60;;;22.70;99.90;;;;;;5051023;28;20029;-83
2023/07/01 06:47:22;;;;;;;3.72;1.40;;;22.90;99.90;;;;;;5043694;28;20064;-83
2023/07/01 06:49:48;;;;;;;4.95;1.77;;;22.30;99.90;;;;;;5052985;28;20033;-85
2023/07/01 06:52:14;;;;;;;6.07;1.27;;;22.10;99.90;;;;;;5061757;28;20040;-83
2023/07/01 06:54:41;;;;;;;5.68;1.75;;;22.30;99.90;;;;;;5048396;28;20049;-83
2023/07/01 06:57:07;;;;;;;4.07;1.90;;;22.30;99.90;;;;;;5050531;28;20060;-81
2023/07/01 06:59:33;;;;;;;2.80;1.65;;;22.70;99.90;;;;;;5051337;28;20044;-82
2023/07/01 07:01:59;;;;;;;5.35;1.90;;;22.70;99.90;;;;;;5048717;28;20036;-82
2023/07/01 07:04:25;;;;;;;6.38;1.75;;;23.50;99.90;;;;;;5046467;28;20037;-82
2023/07/01 07:06:51;;;;;;;3.10;1.80;;;23.40;99.90;;;;;;5049658;28;20468;-78
2023/07/01 07:09:17;;;;;;;5.07;1.80;;;23.00;99.90;;;;;;5050337;28;20036;-81
2023/07/01 07:11:44;;;;;;;6.05;2.28;;;23.20;99.90;;;;;;5058078;28;20033;-83
2023/07/01 07:14:10;;;;;;;3.53;1.27;;;23.00;99.90;;;;;;5046180;28;20041;-80
2023/07/01 07:16:36;;;;;;;7.88;2.05;;;22.20;99.90;;;;;;5049740;28;20048;-82
2023/07/01 07:19:02;;;;;;;5.38;2.70;;;21.90;99.90;;;;;;5032757;28;20051;-81
2023/07/01 07:21:28;;;;;;;4.88;1.77;;;21.80;99.90;;;;;;5047192;28;20036;-81
2023/07/01 07:23:55;;;;;;;6.07;1.95;;;22.10;99.90;;;;;;5064844;28;20381;-82
2023/07/01 07:26:21;;;;;;;3.90;1.65;;;21.90;99.90;;;;;;5047577;28;20644;-82
2023/07/01 07:28:47;;;;;;;5.57;2.10;;;21.90;99.90;;;;;;5064906;28;20048;-81
2023/07/01 07:31:13;;;;;;;11.05;2.63;;;21.90;99.90;;;;;;5061230;28;20041;-81
2023/07/01 07:33:39;;;;;;;6.95;2.17;;;21.80;99.90;;;;;;5047161;28;20204;-80
2023/07/01 07:36:05;;;;;;;4.47;1.90;;;21.90;99.90;;;;;;5032004;28;20037;-80
2023/07/01 07:38:31;;;;;;;3.25;1.80;;;22.40;99.90;;;;;;5047172;28;20407;-80
2023/07/01 07:40:58;;;;;;;9.60;2.67;;;22.70;99.90;;;;;;5047202;28;20040;-80
2023/07/01 07:43:24;;;;;;;2.92;1.73;;;23.10;99.90;;;;;;5048721;28;20028;-82
2023/07/01 07:45:50;;;;;;;3.17;1.88;;;23.40;99.90;;;;;;5049935;28;20037;-83
2023/07/01 07:48:16;;;;;;;7.80;1.77;;;23.60;99.90;;;;;;5046687;28;20056;-83
2023/07/01 07:50:42;;;;;;;3.72;1.98;;;23.40;99.90;;;;;;5048736;28;20029;-81
2023/07/01 07:53:08;;;;;;;3.35;1.58;;;22.80;99.90;;;;;;5049381;28;20033;-82
2023/07/01 07:55:35;;;;;;;8.63;1.80;;;22.50;99.90;;;;;;5061240;28;20033;-82
2023/07/01 07:58:01;;;;;;;6.30;1.77;;;22.40;99.90;;;;;;5047165;28;20041;-80
2023/07/01 08:00:27;;;;;;;3.95;1.67;;;22.50;99.90;;;;;;5045296;28;20033;-81
2023/07/01 08:02:54;;;;;;;6.93;2.55;;;22.70;99.90;;;;;;5047605;28;20120;-82
2023/07/01 08:05:21;;;;;;;6.28;2.10;;;22.70;99.90;;;;;;5047156;28;20037;-78
2023/07/01 08:07:47;;;;;;;3.95;2.22;;;22.60;99.90;;;;;;5064883;28;20052;-78
2023/07/01 08:10:16;;;;;;;3.97;1.75;;;22.70;99.90;;;;;;5045194;28;20368;-79
2023/07/01 08:12:42;;;;;;;3.05;1.23;;;23.40;99.90;;;;;;5046554;28;20052;-79
2023/07/01 08:15:09;;;;;;;6.13;1.70;;;23.90;99.90;;;;;;5028847;28;20037;-79
2023/07/01 08:17:36;;;;;;;5.28;1.60;;;24.30;99.90;;;;;;5047667;28;20037;-81
2023/07/01 08:20:02;;;;;;;6.65;1.20;;;24.40;99.90;;;;;;5045561;28;20405;-80
2023/07/01 08:22:28;;;;;;;6.25;2.38;;;24.20;99.90;;;;;;5046257;28;20056;-77
2023/07/01 08:24:55;;;;;;;4.88;1.60;;;24.30;99.90;;;;;;5046593;28;20051;-80
2023/07/01 08:27:21;;;;;;;7.45;1.50;;;24.40;96.80;;;;;;5049875;28;20384;-79
2023/07/01 08:29:47;;;;;;;7.63;1.98;;;24.20;97.50;;;;;;5045941;28;20484;-78
2023/07/01 08:32:13;;;;;;;2.97;1.40;;;24.20;99.90;;;;;;5047790;28;20036;-80
2023/07/01 08:34:39;;;;;;;3.95;1.48;;;24.90;99.90;;;;;;5029919;28;20040;-79
2023/07/01 08:37:06;;;;;;;4.60;1.70;;;24.30;90.40;;;;;;5047336;28;20472;-80
2023/07/01 08:39:32;;;;;;;7.28;1.58;;;24.70;90.20;;;;;;5049588;28;20436;-80
2023/07/01 08:42:03;;;;;;;2.33;1.30;;;24.90;78.70;;;;;;5060085;28;20514;-80
2023/07/01 08:44:30;;;;;;;3.53;1.50;;;24.60;86.30;;;;;;5040714;28;20155;-79
2023/07/01 08:46:57;;;;;;;3.80;1.13;;;24.60;92.80;;;;;;5036047;28;20036;-78
2023/07/01 08:49:24;;;;;;;2.17;1.30;;;24.30;92.60;;;;;;5036273;28;20040;-81
2023/07/01 08:52:00;;;;;;;2.88;1.25;;;23.40;99.90;;;;;;5050886;28;20033;-77
2023/07/01 08:54:27;;;;;;;4.25;1.98;;;24.00;99.90;;;;;;5033139;28;20045;-79
2023/07/01 08:56:53;;;;;;;2.90;1.63;;;23.80;99.90;;;;;;5037585;28;20045;-84
2023/07/01 08:59:19;;;;;;;2.80;1.35;;;23.80;99.90;;;;;;5049925;28;20047;-77
2023/07/01 09:01:45;;;;;;;3.85;1.67;;;23.50;99.90;;;;;;5049138;28;20396;-81
2023/07/01 09:04:12;;;;;;;4.72;1.60;;;23.40;99.90;;;;;;5062006;28;20044;-78
2023/07/01 09:06:38;;;;;;;4.65;1.85;;;23.30;99.90;;;;;;5051016;28;20040;-77
2023/07/01 09:09:05;;;;;;;3.92;1.75;;;23.40;99.90;;;;;;5048181;28;20498;-77
2023/07/01 09:11:32;;;;;;;3.33;1.60;;;23.00;99.90;;;;;;5050413;28;20368;-78
2023/07/01 09:13:58;;;;;;;3.40;1.67;;;22.80;99.90;;;;;;5047046;28;20029;-78
2023/07/01 09:16:31;;;;;;;2.80;1.05;;;22.90;99.90;;;;;;5048156;28;20036;-78
2023/07/01 09:19:14;;;;;;;4.45;1.02;;;22.90;99.90;;;;;;5053048;28;20033;-78
2023/07/01 09:21:41;;;;;;;5.30;1.70;;;22.90;99.90;;;;;;5052967;28;20040;-77
2023/07/01 09:24:10;;;;;;;3.90;1.50;;;23.00;99.90;;;;;;5050601;28;20464;-78
2023/07/01 09:26:36;;;;;;;2.25;1.10;;;22.90;99.90;;;;;;5046611;28;20037;-78
2023/07/01 09:29:15;;;;;;;3.10;1.20;;;23.00;99.90;;;;;;5053277;28;20034;-78
2023/07/01 09:31:47;;;;;;;4.28;1.52;;;22.90;99.90;;;;;;5053625;28;20036;-77
2023/07/01 09:34:14;;;;;;;3.45;1.60;;;22.90;99.90;;;;;;5049832;28;20735;-77
2023/07/01 09:36:40;;;;;;;6.43;1.60;;;22.80;99.90;;;;;;5049707;28;20037;-77
2023/07/01 09:39:08;;;;;;;2.83;1.15;;;22.80;99.90;;;;;;5047597;28;20037;-77
2023/07/01 09:41:34;;;;;;;2.55;0.98;;;22.70;99.90;;;;;;5048567;28;20044;-77
2023/07/01 09:44:01;;;;;;;3.08;1.30;;;22.70;99.90;;;;;;5048963;28;20041;-81
2023/07/01 09:46:42;;;;;;;2.70;0.85;;;22.60;99.90;;;;;;5051814;28;20041;-79
2023/07/01 09:49:08;;;;;;;4.32;0.80;;;22.40;99.90;;;;;;5050232;28;20048;-78
2023/07/01 09:51:45;;;;;;;4.47;1.10;;;22.30;99.90;;;;;;5049757;28;20037;-79
2023/07/01 09:54:25;;;;;;;3.60;0.77;;;22.20;99.90;;;;;;5064604;28;20395;-77
2023/07/01 09:56:52;;;;;;;2.83;1.08;;;22.20;99.90;;;;;;5048641;28;20601;-78
2023/07/01 09:59:20;;;;;;;2.20;0.95;;;22.30;99.90;;;;;;5050421;28;20048;-78
2023/07/01 10:01:50;;;;;;;2.33;1.27;;;22.20;99.90;;;;;;5051489;28;20033;-79
2023/07/01 10:04:19;;;;;;;4.45;1.08;;;22.30;99.90;;;;;;5049870;28;20092;-83
2023/07/01 10:06:45;;;;;;;1.83;0.90;;;22.10;99.90;;;;;;5052369;28;20036;-79
2023/07/01 10:09:12;;;;;;;2.45;0.80;;;21.90;99.90;;;;;;5047750;28;20422;-78
2023/07/01 10:11:38;;;;;;;2.72;1.08;;;22.00;99.90;;;;;;5052133;28;20040;-76
2023/07/01 10:14:06;;;;;;;1.77;0.70;;;21.90;99.90;;;;;;5050368;28;20036;-79
2023/07/01 10:16:32;;;;;;;2.13;0.90;;;21.60;99.90;;;;;;5051805;28;20471;-81
2023/07/01 10:19:00;;;;;;;3.35;1.02;;;21.70;99.90;;;;;;5050988;28;20039;-78
2023/07/01 10:21:28;;;;;;;4.00;1.13;;;21.80;99.90;;;;;;5052421;28;20041;-80
2023/07/01 10:23:59;;;;;;;2.40;1.10;;;21.80;99.90;;;;;;5051247;28;20029;-78
2023/07/01 10:26:34;;;;;;;5.07;1.88;;;21.70;99.90;;;;;;5067285;28;20048;-80
2023/07/01 10:29:32;;;;;;;3.38;1.55;;;21.40;99.90;;;;;;5045413;28;20041;-82
2023/07/01 10:32:11;;;;;;;3.65;1.33;;;21.50;99.90;;;;;;5050862;28;20131;-78
2023/07/01 10:34:53;;;;;;;2.83;1.27;;;21.40;99.90;;;;;;5048618;28;20041;-76
2023/07/01 10:37:21;;;;;;;3.70;1.30;;;21.40;99.90;;;;;;5048319;28;20480;-77
2023/07/01 10:39:48;;;;;;;3.17;1.83;;;21.40;99.90;;;;;;5043004;28;20029;-76
2023/07/01 10:42:33;;;;;;;2.55;1.23;;;21.40;99.90;;;;;;5050762;28;20026;-74
2023/07/01 10:45:11;;;;;;;4.75;0.90;;;21.40;99.90;;;;;;5048692;28;20360;-79
2023/07/01 10:47:45;;;;;;;4.88;1.30;;;21.50;99.90;;;;;;5064416;28;20048;-74
2023/07/01 10:50:13;;;;;;;2.67;1.08;;;21.40;99.90;;;;;;5047012;28;20028;-76
2023/07/01 10:52:58;;;;;;;1.95;0.88;;;21.60;99.90;;;;;;5046828;28;20045;-77
2023/07/01 10:55:46;;;;;;;2.17;1.02;;;21.60;99.90;;;;;;5046216;28;20033;-75
2023/07/01 10:58:26;;;;;;;3.58;1.23;;;21.60;99.90;;;;;;5032604;28;20045;-75
2023/07/01 11:00:56;;;;;;;3.53;1.23;;;21.90;99.90;;;;;;5047697;28;20048;-77
2023/07/01 11:03:34;;;;;;;;;;;22.40;99.90;;;;;;5047407;28;20098;-76
2023/07/01 11:06:03;;;;;;;3.30;1.48;;;22.70;99.90;;;;;;5059305;28;19908;-77
2023/07/01 11:08:31;;;;;;;2.90;1.73;;;23.00;99.90;;;;;;5045205;28;20040;-81
2023/07/01 11:10:58;;;;;;;2.75;1.60;;;23.10;99.90;;;;;;5030989;28;20498;-75
2023/07/01 11:13:25;;;;;;;4.45;1.30;;;22.80;99.90;;;;;;5030528;28;20033;-77
2023/07/01 11:16:01;;;;;;;5.65;1.25;;;22.80;99.90;;;;;;5047965;28;20511;-76
2023/07/01 11:18:44;;;;;;;2.78;1.33;;;22.50;99.90;;;;;;5031925;28;20045;-76
2023/07/01 11:21:12;;;;;;;5.90;1.42;;;22.40;99.90;;;;;;5030388;28;20497;-76
2023/07/01 11:23:42;;;;;;;3.97;0.95;;;22.20;99.90;;;;;;5052625;28;20043;-75
2023/07/01 11:26:09;;;;;;;4.45;0.80;;;21.80;99.90;;;;;;5001145;28;20055;-78
2023/07/01 11:28:36;;;;;;;4.22;1.38;;;21.60;99.90;;;;;;5047124;28;20055;-76
2023/07/01 11:31:16;;;;;;;2.10;0.93;;;21.60;99.90;;;;;;5031227;28;20040;-78
2023/07/01 11:33:48;;;;;;;4.65;0.80;;;21.80;99.90;;;;;;5048438;28;20040;-75
2023/07/01 11:36:17;;;;;;;3.70;0.90;;;21.70;99.90;;;;;;5048613;28;20048;-76
2023/07/01 11:38:48;;;;;;;3.78;1.23;;;21.70;99.90;;;;;;5048014;28;20029;-74
2023/07/01 11:41:19;;;;;;;3.55;1.00;;;21.80;99.90;;;;;;5049144;28;20040;-77
2023/07/01 11:43:46;;;;;;;2.10;1.20;;;21.90;99.90;;;;;;5062706;28;20056;-81
2023/07/01 11:46:13;;;;;;;7.38;2.08;;;21.90;99.90;;;;;;5043148;28;20036;-76
2023/07/01 11:48:41;;;;;;;3.38;1.15;;;21.80;99.90;;;;;;5046750;28;20049;-79
2023/07/01 11:51:07;;;;;;;2.55;1.25;;;21.70;99.90;;;;;;5048569;28;20377;-76
2023/07/01 11:53:37;;;;;;;5.60;1.40;;;21.80;99.90;;;;;;5028993;28;20037;-77
2023/07/01 11:56:03;;;;;;;;;;;21.70;1.00;;;;;;5060514;28;20052;-76
2023/07/01 11:58:32;;;;;;;2.13;1.30;;;21.70;1.00;;;;;;5047302;28;19916;-76
2023/07/01 12:00:58;;;;;;;2.30;1.00;;;21.70;1.00;;;;;;5044959;28;20064;-75
2023/07/01 12:03:31;;;;;;;2.30;0.95;;;21.80;1.00;;;;;;5048210;28;20144;-76
2023/07/01 12:05:58;;;;;;;4.32;1.20;;;21.70;99.90;;;;;;5038482;28;20064;-78
2023/07/01 12:08:24;;;;;;;2.25;0.60;;;21.60;99.90;;;;;;5047200;28;20480;-75
2023/07/01 12:10:50;;;;;;;4.72;1.00;;;21.50;99.90;;;;;;5048974;28;20152;-77
2023/07/01 12:13:29;;;;;;;3.63;1.50;;;21.50;1.00;;;;;;5049704;28;20025;-77
2023/07/01 12:15:57;;;;;;;5.70;2.20;;;21.80;1.00;;;;;;5046745;28;20036;-76
2023/07/01 12:18:29;;;;;;;3.10;1.73;;;21.80;99.90;;;;;;5046678;28;20032;-76
2023/07/01 12:20:56;;;;;;;4.13;1.65;;;21.80;99.90;;;;;;5032687;28;20045;-78
2023/07/01 12:23:23;;;;;;;3.97;1.83;;;21.90;99.90;;;;;;5051986;28;20048;-75
2023/07/01 12:25:49;;;;;;;5.00;2.45;;;21.70;99.90;;;;;;5050200;28;20037;-76
2023/07/01 12:28:22;;;;;;;3.17;1.35;;;21.80;99.90;;;;;;5067579;28;20472;-75
2023/07/01 12:30:48;;;;;;;3.13;1.52;;;21.80;99.90;;;;;;5051890;28;20032;-76
2023/07/01 12:33:14;;;;;;;4.35;1.33;;;22.20;99.90;;;;;;5050866;28;20033;-76
2023/07/01 12:35:41;;;;;;;3.13;1.02;;;22.40;99.90;;;;;;5034968;28;20052;-77
2023/07/01 12:38:11;;;;;;;3.78;1.30;;;22.40;99.90;;;;;;5034111;28;20045;-76
2023/07/01 12:40:38;;;;;;;4.07;1.48;;;22.50;99.90;;;;;;5052137;28;20048;-76
2023/07/01 12:43:06;;;;;;;1.80;0.93;;;22.40;99.90;;;;;;5050562;28;20040;-79
2023/07/01 12:45:33;;;;;;;3.42;1.20;;;22.30;99.90;;;;;;5050760;28;20057;-75
2023/07/01 12:48:01;;;;;;;3.83;1.60;;;22.30;99.90;;;;;;5035255;28;20041;-77
2023/07/01 12:50:27;;;;;;;5.15;1.95;;;22.20;99.90;;;;;;5050446;28;20028;-76
2023/07/01 12:52:53;;;;;;;2.30;1.30;;;22.10;99.90;;;;;;5066383;28;20048;-77